LFJR

Angers-Loire Airport

Airport
ICAO code
LFJR
IATA Code
ANE
Summary
ICAO Region
EUR
ICAO Territory
Location

Marcé, Pays de la Loire

Serving
Angers
Elevation
194 ft
Coordinates
47° 33' 37" N , 0° 18' 44" W
Metar
Observation
LFJR 030200Z AUTO 03006KT 360V060 8000 -DZ OVC012 03/02 Q1015
Station
MARCE
Date/Time
2022-12-03 02:00:00
Wind direction
30°
Wind speed
06 kts
Lowest cloud amount
overcast
Temperature
3°C
Dew point
2°C
Humidity
93%
QNH
1015 hPa
Weather condition
n/a

Runways

Designator Length Width Surface Rops
8/26 1800 45 ASP Yes/Yes

Airport map

Aerial View

SKYbrary Partners:

Safety knowledge contributed by: